Flight Track Log - Related Links

Times and Time Zones

All times are in EST time to prevent confusion due to time zone crossing. See the N589H flight status page for this flight to view local times or setup timezone preferences in your user account.

Time Position Orientation Groundspeed Altitude Reporting Facility
EST Latitude Longitude Course Direction KTS MPH feet Rate Location/Type
Sat 06:37:05 PM 40.8333 -74.1000 234° Southwest 168 193 1,400  Level New York TRACON
Sat 06:39:25 PM 40.8153 -74.2503 261° West 172 198 4,300 1,493 Climbing New York Center
Sat 06:40:26 PM 40.8136 -74.3183 268° West 172 198 6,400 2,146 Climbing New York Center
Sat 06:41:28 PM 40.8028 -74.3797 257° West 177 204 8,700 1,935 Climbing New York Center
Sat 06:42:00 PM 40.4467 -75.1827 234° Southwest  Level FlightAware Approximate
Sat 06:42:30 PM 40.7764 -74.4464 242° Southwest 189 217 10,400  Level New York Center
Sat 06:43:32 PM 40.7517 -74.5122 244° Southwest 192 221 12,300 1,694 Climbing New York Center
Sat 06:44:34 PM 40.7267 -74.5817 245° Southwest 200 230 13,900 1,548 Climbing New York Center
Sat 06:45:36 PM 40.7003 -74.6539 244° Southwest 216 249 15,500 1,452 Climbing New York Center
Sat 06:46:38 PM 40.6722 -74.7275 243° Southwest 227 261 16,900 1,258 Climbing New York Center
Sat 06:47:40 PM 40.6414 -74.8081 243° Southwest 229 264 18,100 1,065 Climbing New York Center
Sat 06:48:42 PM 40.6156 -74.8806 245° Southwest 229 264 19,100 1,016 Climbing New York Center
Sat 06:49:44 PM 40.5858 -74.9589 243° Southwest 239 275 20,200 1,016 Climbing New York Center
Sat 06:50:46 PM 40.5544 -75.0397 243° Southwest 246 283 21,200 1,016 Climbing New York Center
Sat 06:51:48 PM 40.5061 -75.1125 229° Southwest 263 303 22,300 1,258 Climbing New York Center
Sat 06:52:50 PM 40.4492 -75.2019 230° Southwest 273 314 23,800 1,355 Climbing New York Center
Sat 06:53:52 PM 40.3950 -75.2850 229° Southwest 282 325 25,100 1,113 Climbing New York Center
Sat 06:54:54 PM 40.3481 -75.3608 231° Southwest 273 314 26,100 1,122 Climbing New York Center
Sat 06:55:55 PM 40.2956 -75.4447 231° Southwest 278 320 27,400 1,073 Climbing New York Center
Sat 06:56:57 PM 40.2450 -75.5217 229° Southwest 278 320 28,300 823 Climbing New York Center
Sat 06:57:59 PM 40.1889 -75.5753 216° Southwest 306 352 29,100 890 Climbing New York Center
Sat 06:59:32 PM 40.0778 -75.6681 213° Southwest 300 345 30,600 968 Climbing Washington Center
Sat 07:00:03 PM 40.0347 -75.7028 212° Southwest 299 344 31,100 903 Climbing New York Center
Sat 07:01:05 PM 39.9639 -75.7625 213° Southwest 302 348 32,000 435 Climbing New York Center
Sat 07:02:07 PM 39.8897 -75.8239 212° Southwest 314 361 32,000  Level New York Center
Sat 07:03:08 PM 39.7936 -75.9039 213° Southwest 340 391 32,000  Level New York Center
Sat 07:04:10 PM 39.7089 -75.9714 212° Southwest 355 409 32,000  Level New York Center
Sat 07:05:12 PM 39.6233 -76.0419 212° Southwest 360 414 32,000  Level New York Center
Sat 07:05:44 PM 39.5900 -76.0714 214° Southwest 363 418 32,000  Level Washington Center
Sat 07:06:47 PM 39.5050 -76.1406 212° Southwest 362 417 32,000  Level Washington Center
Sat 07:07:49 PM 39.4033 -76.2256 213° Southwest 363 418 32,000  Level Washington Center
Sat 07:08:52 PM 39.3342 -76.3064 222° Southwest 359 413 32,000  Level Washington Center
Sat 07:09:53 PM 39.2608 -76.3928 222° Southwest 357 411 32,000  Level Washington Center
Sat 07:10:57 PM 39.1800 -76.4697 216° Southwest 357 411 32,000  Level Washington Center
Sat 07:11:58 PM 39.0728 -76.5503 210° Southwest 367 422 32,000  Level Washington Center
Sat 07:12:58 PM 38.9847 -76.6203 212° Southwest 368 423 32,000  Level Washington Center
Sat 07:14:02 PM 38.8961 -76.6900 211° Southwest 369 425 32,000  Level Washington Center
Sat 07:15:04 PM 38.8086 -76.7594 212° Southwest 369 425 32,000  Level Washington Center
Sat 07:16:07 PM 38.7200 -76.8281 211° Southwest 369 425 32,000  Level Washington Center
Sat 07:17:08 PM 38.6314 -76.8981 212° Southwest 371 427 32,000  Level Washington Center
Sat 07:18:11 PM 38.5433 -76.9686 212° Southwest 371 427 32,000  Level Washington Center
Sat 07:19:12 PM 38.4367 -77.0506 211° Southwest 372 428 32,000  Level Washington Center
Sat 07:20:16 PM 38.3475 -77.1189 211° Southwest 371 427 32,000  Level Washington Center
Sat 07:21:18 PM 38.2586 -77.1883 212° Southwest 372 428 32,000  Level Washington Center
Sat 07:22:18 PM 38.1694 -77.2558 211° Southwest 372 428 32,000  Level Washington Center
Sat 07:23:19 PM 38.0800 -77.3253 211° Southwest 373 429 32,000  Level Washington Center
Sat 07:24:24 PM 37.9786 -77.4031 211° Southwest 373 429 32,000  Level Washington Center
Sat 07:25:24 PM 37.8894 -77.4711 211° Southwest 373 429 32,000  Level Washington Center
Sat 07:26:28 PM 37.8006 -77.5397 211° Southwest 376 433 32,000  Level Washington Center
Sat 07:27:29 PM 37.7122 -77.6069 211° Southwest 376 433 32,000  Level Washington Center
Sat 07:28:32 PM 37.6033 -77.6883 211° Southwest 379 436 32,000  Level Washington Center
Sat 07:29:34 PM 37.5144 -77.7561 211° Southwest 380 437 32,000  Level Washington Center
Sat 07:30:35 PM 37.4244 -77.8244 211° Southwest 380 437 32,000  Level Washington Center
Sat 07:31:38 PM 37.3342 -77.8919 211° Southwest 381 438 32,000  Level Washington Center
Sat 07:32:40 PM 37.2444 -77.9592 211° Southwest 380 437 32,000  Level Washington Center
Sat 07:33:41 PM 37.1358 -78.0417 211° Southwest 381 438 32,000  Level Washington Center
Sat 07:34:42 PM 37.0447 -78.1081 210° Southwest 381 438 32,000  Level Washington Center
Sat 07:35:45 PM 36.9517 -78.1781 211° Southwest 386 444 32,000  Level Washington Center
Sat 07:36:48 PM 36.8611 -78.2428 210° Southwest 385 443 32,000  Level Washington Center
Sat 07:37:49 PM 36.7700 -78.3111 211° Southwest 385 443 32,000  Level Washington Center
Sat 07:38:50 PM 36.6711 -78.3853 211° Southwest 390 449 32,000  Level Washington Center
Sat 07:39:54 PM 36.5789 -78.4533 211° Southwest 389 448 32,000  Level Washington Center
Sat 07:40:54 PM 36.4686 -78.5356 211° Southwest 385 443 32,000  Level Washington Center
Sat 07:41:58 PM 36.3758 -78.6019 210° Southwest 384 442 32,000  Level Washington Center
Sat 07:42:58 PM 36.2842 -78.6689 210° Southwest 384 442 32,000  Level Washington Center
Sat 07:44:02 PM 36.1922 -78.7356 210° Southwest 384 442 32,000  Level Washington Center
Sat 07:45:02 PM 36.1011 -78.8033 211° Southwest 384 442 32,000  Level Washington Center
Sat 07:46:06 PM 36.0092 -78.8681 210° Southwest 383 441 32,000  Level Washington Center
Sat 07:47:07 PM 35.8981 -78.9475 210° Southwest 383 441 32,000  Level Washington Center
Sat 07:48:07 PM 35.8064 -79.0125 210° Southwest 384 442 32,000  Level Washington Center
Sat 07:49:11 PM 35.7144 -79.0775 210° Southwest 383 441 32,000  Level Washington Center
Sat 07:50:12 PM 35.6222 -79.1447 211° Southwest 386 444 32,000  Level Washington Center
Sat 07:51:14 PM 35.5178 -79.2189 210° Southwest 386 444 32,000  Level Washington Center
Sat 07:52:17 PM 35.4186 -79.2894 210° Southwest 385 443 32,000  Level Washington Center
Sat 07:53:18 PM 35.3261 -79.3547 210° Southwest 386 444 32,000  Level Washington Center
Sat 07:54:19 PM 35.2353 -79.4189 210° Southwest 385 443 32,000  Level Washington Center
Sat 07:55:22 PM 35.1428 -79.4842 210° Southwest 385 443 32,000  Level Washington Center
Sat 07:56:23 PM 35.0508 -79.5489 210° Southwest 385 443 32,000  Level Washington Center
Sat 07:57:25 PM 34.9572 -79.6136 210° Southwest 385 443 32,000  Level Washington Center
Sat 07:58:25 PM 34.8478 -79.6911 210° Southwest 383 441 32,000  Level Washington Center
Sat 07:59:28 PM 34.7553 -79.7558 210° Southwest 384 442 32,000  Level Washington Center
Sat 08:00:31 PM 34.6619 -79.8200 209° Southwest 385 443 32,000  Level Washington Center
Sat 08:01:37 PM 34.5500 -79.9003 211° Southwest 387 445 32,000  Level Jacksonville Center
Sat 08:02:36 PM 34.4700 -79.9561 210° Southwest 387 445 32,000  Level Jacksonville Center
Sat 08:03:36 PM 34.3756 -80.0222 210° Southwest 387 445 32,000  Level Jacksonville Center
Sat 08:04:37 PM 34.2850 -80.0853 210° Southwest 387 445 32,000  Level Jacksonville Center
Sat 08:05:36 PM 34.1947 -80.1486 210° Southwest 387 445 32,000  Level Jacksonville Center
Sat 08:06:36 PM 34.1042 -80.2067 208° Southwest 387 445 32,000  Level Jacksonville Center
Sat 08:07:37 PM 34.0158 -80.2694 211° Southwest 379 436 32,000  Level Jacksonville Center
Sat 08:08:37 PM 33.9294 -80.3297 210° Southwest 374 430 32,000  Level Jacksonville Center
Sat 08:09:36 PM 33.8386 -80.3872 208° Southwest 369 425 32,000  Level Jacksonville Center
Sat 08:10:36 PM 33.7522 -80.4472 210° Southwest 369 425 32,000  Level Jacksonville Center
Sat 08:11:36 PM 33.6533 -80.5122 209° Southwest 369 425 32,000  Level Jacksonville Center
Sat 08:12:37 PM 33.5667 -80.5719 210° Southwest 369 425 32,000  Level Jacksonville Center
Sat 08:13:37 PM 33.4781 -80.6314 209° Southwest 369 425 32,000  Level Jacksonville Center
Sat 08:14:37 PM 33.3894 -80.6911 209° Southwest 369 425 32,000  Level Jacksonville Center
Sat 08:15:36 PM 33.3006 -80.7478 208° Southwest 369 425 32,000  Level Jacksonville Center
Sat 08:16:37 PM 33.2139 -80.8069 210° Southwest 369 425 32,000  Level Jacksonville Center
Sat 08:17:37 PM 33.1253 -80.8661 209° Southwest 369 425 32,000  Level Jacksonville Center
Sat 08:18:36 PM 33.0386 -80.9275 211° Southwest 369 425 32,000  Level Jacksonville Center
Sat 08:19:37 PM 32.9497 -80.9839 208° Southwest 369 425 32,000  Level Jacksonville Center
Sat 08:20:37 PM 32.8628 -81.0403 209° Southwest 369 425 32,000  Level Jacksonville Center
Sat 08:21:36 PM 32.7739 -81.0989 209° Southwest 369 425 32,000  Level Jacksonville Center
Sat 08:22:36 PM 32.6869 -81.1572 209° Southwest 369 425 32,000  Level Jacksonville Center
Sat 08:23:36 PM 32.6106 -81.2081 209° Southwest 357 411 32,000  Level Jacksonville Center
Sat 08:24:36 PM 32.5236 -81.2639 208° Southwest 357 411 32,000  Level Jacksonville Center
Sat 08:25:36 PM 32.4283 -81.3272 209° Southwest 357 411 32,000  Level Jacksonville Center
Sat 08:26:36 PM 32.3433 -81.3828 209° Southwest 357 411 32,000  Level Jacksonville Center
Sat 08:27:36 PM 32.2564 -81.4408 209° Southwest 352 405 32,000  Level Jacksonville Center
Sat 08:28:36 PM 32.1692 -81.4961 208° Southwest 357 411 32,000  Level Jacksonville Center
Sat 08:29:37 PM 32.0842 -81.5317 200° South 357 411 32,000  Level Jacksonville Center
Sat 08:30:36 PM 31.9758 -81.5650 195° South 370 426 32,000  Level Jacksonville Center
Sat 08:31:36 PM 31.8822 -81.5958 196° South 376 433 32,000  Level Jacksonville Center
Sat 08:32:37 PM 31.7742 -81.6342 197° South 381 438 32,000  Level Jacksonville Center
Sat 08:33:37 PM 31.6742 -81.6694 197° South 386 444 32,000  Level Jacksonville Center
Sat 08:34:37 PM 31.5847 -81.6975 195° South 378 435 32,000  Level Jacksonville Center
Sat 08:35:36 PM 31.4744 -81.7356 196° South 378 435 32,000  Level Jacksonville Center
Sat 08:36:37 PM 31.3722 -81.7683 195° South 378 435 32,000  Level Jacksonville Center
Sat 08:37:36 PM 31.2786 -81.8011 197° South 378 435 32,000  Level Jacksonville Center
Sat 08:38:36 PM 31.1808 -81.8339 196° South 378 435 32,000  Level Jacksonville Center
Sat 08:39:36 PM 31.0789 -81.8689 196° South 378 435 32,000  Level Jacksonville Center
Sat 08:40:36 PM 30.9808 -81.9014 196° South 378 435 32,000  Level Jacksonville Center
Sat 08:41:37 PM 30.8808 -81.9364 197° South 378 435 32,000  Level Jacksonville Center
Sat 08:42:36 PM 30.7811 -81.9689 196° South 378 435 32,000  Level Jacksonville Center
Sat 08:43:36 PM 30.6831 -82.0011 196° South 378 435 32,000  Level Jacksonville Center
Sat 08:44:36 PM 30.5831 -82.0336 196° South 378 435 32,000  Level Jacksonville Center
Sat 08:45:37 PM 30.4725 -82.0658 194° South 373 429 32,000  Level Jacksonville Center
Sat 08:46:37 PM 30.3747 -82.0956 195° South 378 435 32,000 -100 Level Jacksonville Center
Sat 08:47:37 PM 30.2767 -82.1325 198° South 378 435 31,800 -550 Descending Jacksonville Center
Sat 08:48:37 PM 30.1706 -82.1550 190° South 378 435 30,900 -857 Descending Jacksonville Center
Sat 08:49:36 PM 30.0600 -82.1797 191° South 396 456 30,100 -908 Descending Jacksonville Center
Sat 08:50:36 PM 29.9494 -82.2117 194° South 402 463 29,100 -1,150 Descending Jacksonville Center
Sat 08:51:36 PM 29.8389 -82.2364 191° South 408 470 27,800 -1,250 Descending Jacksonville Center
Sat 08:52:36 PM 29.7264 -82.2589 190° South 413 475 26,600 -1,289 Descending Jacksonville Center
Sat 08:53:37 PM 29.6200 -82.2881 193° South 413 475 25,200 -1,750 Descending Jacksonville Center
Sat 08:54:36 PM 29.5114 -82.3128 191° South 413 475 23,100 -2,269 Descending Jacksonville Center
Sat 08:55:36 PM 29.4053 -82.3394 192° South 408 470 20,700 -2,350 Descending Jacksonville Center
Sat 08:56:36 PM 29.3050 -82.3617 191° South 396 456 18,400 -2,150 Descending Jacksonville Center
Sat 08:57:36 PM 29.2111 -82.3833 191° South 370 426 16,400 -2,150 Descending Jacksonville Center
Sat 08:58:36 PM 29.1194 -82.4053 192° South 354 407 14,100 -2,200 Descending Jacksonville Center
Sat 08:59:36 PM 29.0319 -82.4272 192° South 335 386 12,000 -1,537 Descending Jacksonville Center
Sat 09:00:37 PM 28.9442 -82.4464 191° South 329 379 11,000 -500 Descending Jacksonville Center
Sat 09:01:36 PM 28.8608 -82.4658 192° South 324 373 11,000 -36 Level Jacksonville Center
Sat 09:03:23 PM 28.7167 -82.5000 192° South 312 359 10,900 -36 Descending Tampa TRACON
Sat 09:04:23 PM 28.6167 -82.5167 188° South 312 359 10,900 -100 Level Tampa TRACON
Sat 09:05:23 PM 28.5333 -82.5500 199° South 316 364 10,700 -550 Descending Tampa TRACON
Sat 09:06:23 PM 28.4667 -82.5833 204° Southwest 312 359 9,800 -850 Descending Tampa TRACON
Sat 09:07:23 PM 28.3833 -82.6333 208° Southwest 296 341 9,000 -900 Descending Tampa TRACON
Sat 09:08:23 PM 28.3000 -82.6667 199° South 289 333 8,000 -1,100 Descending Tampa TRACON
Sat 09:09:23 PM 28.2333 -82.7000 204° Southwest 278 320 6,800 -1,150 Descending Tampa TRACON
Sat 09:10:23 PM 28.1667 -82.7167 192° South 271 312 5,700 -1,150 Descending Tampa TRACON
Sat 09:11:23 PM 28.0833 -82.7333 190° South 260 299 4,500 -850 Descending Tampa TRACON
Sat 09:12:23 PM 28.0167 -82.7333 180° South 242 278 4,000 -950 Descending Tampa TRACON
Sat 09:13:23 PM 27.9667 -82.7500 196° South 215 247 2,600 -750 Descending Tampa TRACON
Sat 09:14:23 PM 27.9167 -82.7500 180° South 165 190 2,500 -347 Descending Tampa TRACON
Sat 09:15:24 PM 27.8667 -82.7500 180° South 152 175 1,900 -783 Descending Tampa TRACON
Sat 09:16:18 PM 27.8667 -82.7000 90° East 130 150 1,000 -842 Descending Tampa TRACON
Sat 09:17:18 PM 27.8833 -82.6833 41° Northeast 128 147 300 -700 Descending Tampa TRACON

Login

Don't have an account? Register now (free) for customized features, flight alerts, and more!